Terminal Aerodrome Forecast
Issued by NWS

Home | Current Version | Previous Version | Text Only | Print | Product List | Glossary On
Versions: 1 2 3 4 5 6 7 8 9 10 11 12 13
000
FTUS45 KFGZ 061120
TAFGCN
TAF
KGCN 061120Z 0612/0712 21005KT P6SM FEW110 BKN150 OVC250
     FM061800 23015G25KT P6SM SCT100 BKN150
     FM070100 23012G20KT P6SM SCT250
     FM070300 23010KT P6SM SCT250
     FM070700 25008KT P6SM BKN030=

USA.gov is the U.S. government's official web portal to all federal, state and local government web resources and services.